Terminal Aerodrome Forecast
Issued by NWS

Home | Current Version | Previous Version | Text Only | Print | Product List | Glossary On
Versions: 1 2 3 4 5 6 7 8 9 10 11 12 13 14 15 16 17 18 19 20 21 22 23 24
692
FTUS45 KGJT 220529
TAFASE
TAF
KASE 220529Z 2206/2306 14012KT P6SM SCT200
     FM220800 20005KT P6SM SCT200
     FM221500 VRB03KT P6SM BKN200
     FM221800 01006KT P6SM VCTS SCT100CB BKN150
     FM222100 23005KT P6SM VCTS BKN100CB
     FM230000 16005KT P6SM SCT070 BKN100=

USA.gov is the U.S. government's official web portal to all federal, state and local government web resources and services.